createdAt,value
2022-08-02T00:00:09.525Z,99.90
2022-08-02T00:02:36.533Z,99.90
2022-08-02T00:05:03.479Z,99.90
2022-08-02T00:07:30.199Z,99.90
2022-08-02T00:09:56.959Z,99.90
2022-08-02T00:12:24.016Z,99.90
2022-08-02T00:14:51.226Z,99.90
2022-08-02T00:17:18.214Z,99.90
2022-08-02T00:19:45.163Z,99.90
2022-08-02T00:22:12.221Z,99.90
2022-08-02T00:24:39.233Z,99.90
2022-08-02T00:27:09.267Z,99.90
2022-08-02T00:29:52.141Z,99.90
2022-08-02T00:32:21.131Z,99.90
2022-08-02T00:34:47.953Z,99.90
2022-08-02T00:37:14.849Z,99.90
2022-08-02T00:39:44.844Z,99.90
2022-08-02T00:42:14.744Z,99.90
2022-08-02T00:44:41.861Z,99.90
2022-08-02T00:47:08.609Z,99.90
2022-08-02T00:49:35.406Z,99.90
2022-08-02T00:52:02.890Z,99.90
2022-08-02T00:54:29.737Z,99.90
2022-08-02T00:56:56.466Z,99.90
2022-08-02T00:59:23.187Z,99.90
2022-08-02T01:01:57.533Z,99.90
2022-08-02T01:04:31.497Z,99.90
2022-08-02T01:07:13.107Z,99.90
2022-08-02T01:09:45.269Z,99.90
2022-08-02T01:12:13.177Z,99.90
2022-08-02T01:14:43.330Z,99.90
2022-08-02T01:17:26.152Z,99.90
2022-08-02T01:20:01.993Z,99.90
2022-08-02T01:23:02.870Z,99.90
2022-08-02T01:25:51.137Z,99.90
2022-08-02T01:28:38.808Z,99.90
2022-08-02T01:31:33.145Z,99.90
2022-08-02T01:34:05.694Z,99.90
2022-08-02T01:36:38.143Z,99.90
2022-08-02T01:39:06.053Z,99.90
2022-08-02T01:41:34.372Z,99.90
2022-08-02T01:44:02.975Z,99.90
2022-08-02T01:46:31.600Z,99.90
2022-08-02T01:49:01.512Z,99.90
2022-08-02T01:51:47.961Z,99.90
2022-08-02T01:54:17.421Z,99.90
2022-08-02T01:56:45.392Z,99.90
2022-08-02T01:59:16.503Z,99.90
2022-08-02T02:01:45.949Z,99.90
2022-08-02T02:04:15.629Z,99.90
2022-08-02T02:06:44.773Z,99.90
2022-08-02T02:09:14.289Z,99.90
2022-08-02T02:12:13.877Z,99.90
2022-08-02T02:14:32.418Z,99.90
2022-08-02T02:17:00.172Z,99.90
2022-08-02T02:19:28.870Z,99.90
2022-08-02T02:21:57.034Z,99.90
2022-08-02T02:24:24.249Z,99.90
2022-08-02T02:26:52.391Z,99.90
2022-08-02T02:29:22.103Z,99.90
2022-08-02T02:31:54.756Z,99.90
2022-08-02T02:34:35.372Z,99.90
2022-08-02T02:37:05.948Z,99.90
2022-08-02T02:39:35.029Z,99.90
2022-08-02T02:42:04.425Z,99.90
2022-08-02T02:44:31.985Z,99.90
2022-08-02T02:47:01.040Z,99.90
2022-08-02T02:49:31.797Z,99.90
2022-08-02T02:51:59.157Z,99.90
2022-08-02T02:54:30.040Z,99.90
2022-08-02T02:57:02.911Z,99.90
2022-08-02T02:59:30.189Z,99.90
2022-08-02T03:01:58.207Z,99.90
2022-08-02T03:04:27.606Z,99.90
2022-08-02T03:07:14.441Z,99.90
2022-08-02T03:09:41.133Z,99.90
2022-08-02T03:12:10.493Z,99.90
2022-08-02T03:14:42.973Z,99.90
2022-08-02T03:17:09.813Z,99.90
2022-08-02T03:19:36.736Z,99.90
2022-08-02T03:22:03.531Z,99.90
2022-08-02T03:24:30.320Z,99.90
2022-08-02T03:26:57.106Z,99.90
2022-08-02T03:29:23.905Z,99.90
2022-08-02T03:31:50.876Z,99.90
2022-08-02T03:34:17.648Z,99.90
2022-08-02T03:36:49.198Z,99.90
2022-08-02T03:39:16.539Z,99.90
2022-08-02T03:41:43.735Z,99.90
2022-08-02T03:44:12.373Z,99.90
2022-08-02T03:46:40.162Z,99.90
2022-08-02T03:49:11.049Z,99.90
2022-08-02T03:51:38.198Z,99.90
2022-08-02T03:54:05.143Z,99.90
2022-08-02T03:56:32.282Z,99.90
2022-08-02T03:59:10.080Z,99.90
2022-08-02T04:01:36.970Z,99.90
2022-08-02T04:04:04.392Z,99.90
2022-08-02T04:06:31.103Z,99.90
2022-08-02T04:08:58.138Z,99.90
2022-08-02T04:11:30.929Z,99.90
2022-08-02T04:13:59.757Z,99.90
2022-08-02T04:16:34.827Z,99.90
2022-08-02T04:19:03.769Z,99.90
2022-08-02T04:21:49.930Z,99.90
2022-08-02T04:24:27.356Z,99.90
2022-08-02T04:27:06.877Z,99.90
2022-08-02T04:29:47.716Z,99.90
2022-08-02T04:32:15.695Z,99.90
2022-08-02T04:34:54.251Z,99.90
2022-08-02T04:37:30.280Z,99.90
2022-08-02T04:39:56.995Z,99.90
2022-08-02T04:42:25.641Z,99.90
2022-08-02T04:44:53.339Z,99.90
2022-08-02T04:47:39.957Z,99.90
2022-08-02T04:50:08.773Z,99.90
2022-08-02T04:52:35.775Z,99.90
2022-08-02T04:55:02.459Z,99.90
2022-08-02T04:57:52.599Z,99.90
2022-08-02T05:00:20.746Z,99.90
2022-08-02T05:02:48.593Z,99.90
2022-08-02T05:05:15.856Z,99.90
2022-08-02T05:07:42.540Z,99.90
2022-08-02T05:10:09.485Z,99.90
2022-08-02T05:12:38.215Z,99.90
2022-08-02T05:15:05.538Z,99.90
2022-08-02T05:17:32.149Z,99.90
2022-08-02T05:19:58.993Z,99.90
2022-08-02T05:22:25.860Z,99.90
2022-08-02T05:24:52.645Z,99.90
2022-08-02T05:27:21.823Z,99.90
2022-08-02T05:29:53.838Z,99.90
2022-08-02T05:32:25.092Z,99.90
2022-08-02T05:34:53.082Z,99.90
2022-08-02T05:37:19.858Z,99.90
2022-08-02T05:39:55.601Z,99.90
2022-08-02T05:42:23.796Z,99.90
2022-08-02T05:44:50.689Z,99.90
2022-08-02T05:47:17.580Z,99.90
2022-08-02T05:49:44.268Z,99.90
2022-08-02T05:52:19.885Z,99.90
2022-08-02T05:55:07.253Z,99.90
2022-08-02T05:57:52.426Z,99.90
2022-08-02T06:00:20.131Z,99.90
2022-08-02T06:03:16.879Z,99.90
2022-08-02T06:05:52.077Z,99.90
2022-08-02T06:08:21.240Z,99.90
2022-08-02T06:10:50.889Z,99.90
2022-08-02T06:13:17.714Z,99.90
2022-08-02T06:15:53.165Z,99.90
2022-08-02T06:18:27.895Z,99.90
2022-08-02T06:22:29.549Z,99.90
2022-08-02T06:23:58.083Z,99.90
2022-08-02T06:26:27.843Z,99.90
2022-08-02T06:28:56.131Z,99.90
2022-08-02T06:31:23.310Z,99.90
2022-08-02T06:33:50.032Z,99.90
2022-08-02T06:36:49.564Z,99.90
2022-08-02T06:39:31.734Z,99.90
2022-08-02T06:42:01.615Z,99.90
2022-08-02T06:44:48.905Z,99.90
2022-08-02T06:47:17.838Z,99.90
2022-08-02T06:49:52.739Z,99.90
2022-08-02T06:52:30.038Z,99.90
2022-08-02T06:55:00.206Z,99.90
2022-08-02T06:57:28.324Z,99.90
2022-08-02T06:59:55.468Z,99.90
2022-08-02T07:02:22.755Z,99.90
2022-08-02T07:04:49.470Z,99.90
2022-08-02T07:07:16.291Z,99.90
2022-08-02T07:10:00.724Z,99.90
2022-08-02T07:12:33.033Z,99.90
2022-08-02T07:15:05.745Z,99.90
2022-08-02T07:17:33.457Z,99.90
2022-08-02T07:20:00.761Z,99.90
2022-08-02T07:22:28.263Z,99.90
2022-08-02T07:24:57.344Z,99.90
2022-08-02T07:27:25.722Z,99.90
2022-08-02T07:29:52.698Z,99.90
2022-08-02T07:32:21.820Z,99.90
2022-08-02T07:34:50.836Z,99.90
2022-08-02T07:37:53.690Z,99.90
2022-08-02T07:40:13.894Z,99.90
2022-08-02T07:42:45.180Z,99.90
2022-08-02T07:45:13.574Z,99.90
2022-08-02T07:47:41.985Z,99.90
2022-08-02T07:50:11.970Z,99.90
2022-08-02T07:52:39.865Z,99.90
2022-08-02T07:55:07.524Z,99.90
2022-08-02T07:57:34.434Z,99.90
2022-08-02T08:00:01.174Z,99.90
2022-08-02T08:02:39.046Z,99.90
2022-08-02T08:05:06.986Z,99.90
2022-08-02T08:07:34.774Z,99.90
2022-08-02T08:10:02.079Z,99.90
2022-08-02T08:12:28.968Z,99.90
2022-08-02T08:14:55.682Z,99.90
2022-08-02T08:17:22.656Z,99.90
2022-08-02T08:19:51.446Z,99.90
2022-08-02T08:22:20.066Z,99.90
2022-08-02T08:24:48.092Z,99.90
2022-08-02T08:27:15.649Z,99.90
2022-08-02T08:29:43.393Z,99.90
2022-08-02T08:32:16.330Z,99.90
2022-08-02T08:34:48.487Z,99.90
2022-08-02T08:37:16.668Z,99.90
2022-08-02T08:39:56.201Z,99.90
2022-08-02T08:42:24.730Z,99.90
2022-08-02T08:44:51.595Z,99.90
2022-08-02T08:47:19.955Z,99.90
2022-08-02T08:49:52.562Z,99.90
2022-08-02T08:52:23.700Z,99.90
2022-08-02T08:54:51.237Z,99.90
2022-08-02T08:57:20.222Z,99.90
2022-08-02T08:59:47.235Z,99.90
2022-08-02T09:02:17.799Z,99.90
2022-08-02T09:04:54.656Z,99.90
2022-08-02T09:07:22.879Z,99.90
2022-08-02T09:09:49.592Z,99.90
2022-08-02T09:12:18.294Z,99.90
2022-08-02T09:14:46.412Z,99.90
2022-08-02T09:17:17.641Z,99.90
2022-08-02T09:19:45.964Z,99.90
2022-08-02T09:22:15.467Z,99.90
2022-08-02T09:24:48.883Z,99.90
2022-08-02T09:27:18.562Z,99.90
2022-08-02T09:30:12.258Z,99.90
2022-08-02T09:32:48.393Z,99.90
2022-08-02T09:36:07.022Z,99.90
2022-08-02T09:38:18.764Z,99.90
2022-08-02T09:40:45.643Z,99.90
2022-08-02T09:43:12.337Z,99.90
2022-08-02T09:45:39.136Z,99.90
2022-08-02T09:48:09.573Z,99.90
2022-08-02T09:50:40.263Z,99.90
2022-08-02T09:53:15.433Z,99.90
2022-08-02T09:55:42.770Z,99.90
2022-08-02T09:58:20.175Z,99.90
2022-08-02T10:00:57.366Z,99.90
2022-08-02T10:03:31.093Z,99.90
2022-08-02T10:06:03.317Z,99.90
2022-08-02T10:08:32.876Z,99.90
2022-08-02T10:11:01.753Z,99.90
2022-08-02T10:13:30.341Z,99.90
2022-08-02T10:15:57.318Z,99.90
2022-08-02T10:18:38.253Z,99.90
2022-08-02T10:21:19.413Z,99.90
2022-08-02T10:23:50.071Z,99.90
2022-08-02T10:26:19.000Z,99.90
2022-08-02T10:28:50.188Z,99.90
2022-08-02T10:31:23.398Z,99.90
2022-08-02T10:33:52.954Z,99.90
2022-08-02T10:36:21.161Z,99.90
2022-08-02T10:38:48.118Z,99.90
2022-08-02T10:41:14.839Z,99.90
2022-08-02T10:43:43.766Z,99.90
2022-08-02T10:46:34.449Z,99.90
2022-08-02T10:49:36.342Z,99.90
2022-08-02T10:52:05.811Z,99.90
2022-08-02T10:54:36.238Z,99.90
2022-08-02T10:57:04.292Z,99.90
2022-08-02T10:59:33.378Z,99.90
2022-08-02T11:02:05.486Z,99.90
2022-08-02T11:04:43.845Z,99.90
2022-08-02T11:07:19.080Z,99.90
2022-08-02T11:09:47.416Z,99.90
2022-08-02T11:12:17.078Z,99.90
2022-08-02T11:14:46.471Z,99.90
2022-08-02T11:17:17.487Z,99.90
2022-08-02T11:20:12.435Z,99.90
2022-08-02T11:22:40.085Z,99.90
2022-08-02T11:25:32.036Z,99.90
2022-08-02T11:28:10.606Z,99.90
2022-08-02T11:30:37.904Z,98.40
2022-08-02T11:33:05.043Z,96.40
2022-08-02T11:35:33.520Z,97.30
2022-08-02T11:38:14.202Z,99.70
2022-08-02T11:40:43.538Z,99.90
2022-08-02T11:43:24.543Z,99.90
2022-08-02T11:45:53.253Z,99.90
2022-08-02T11:48:40.742Z,99.90
2022-08-02T11:51:10.551Z,99.90
2022-08-02T11:53:52.019Z,99.90
2022-08-02T11:56:30.938Z,99.90
2022-08-02T11:59:08.643Z,99.90
2022-08-02T12:01:45.802Z,99.90
2022-08-02T12:04:18.295Z,99.90
2022-08-02T12:06:54.530Z,99.90
2022-08-02T12:09:23.050Z,99.90
2022-08-02T12:11:53.405Z,99.90
2022-08-02T12:14:20.253Z,99.90
2022-08-02T12:17:07.158Z,99.90
2022-08-02T12:19:35.042Z,99.90
2022-08-02T12:22:27.551Z,99.90
2022-08-02T12:24:57.590Z,99.90
2022-08-02T12:27:32.661Z,99.90
2022-08-02T12:30:02.590Z,99.90
2022-08-02T12:32:29.901Z,99.90
2022-08-02T12:35:11.964Z,99.90
2022-08-02T12:37:42.788Z,99.90
2022-08-02T12:40:24.835Z,99.90
2022-08-02T12:43:05.283Z,99.90
2022-08-02T12:45:54.001Z,99.90
2022-08-02T12:48:37.424Z,99.90
2022-08-02T12:51:25.490Z,99.90
2022-08-02T12:54:19.143Z,99.90
2022-08-02T12:57:13.677Z,99.90
2022-08-02T12:59:42.398Z,99.90
2022-08-02T13:02:12.732Z,99.30
2022-08-02T13:04:40.387Z,99.90
2022-08-02T13:07:08.363Z,99.90
2022-08-02T13:09:45.494Z,99.20
2022-08-02T13:12:12.820Z,98.00
2022-08-02T13:14:41.987Z,97.90
2022-08-02T13:17:09.883Z,99.10
2022-08-02T13:19:37.326Z,98.80
2022-08-02T13:22:04.436Z,99.60
2022-08-02T13:24:40.250Z,99.50
2022-08-02T13:27:20.906Z,97.80
2022-08-02T13:29:48.978Z,97.80
2022-08-02T13:32:16.469Z,99.10
2022-08-02T13:34:43.609Z,99.50
2022-08-02T13:37:10.364Z,99.90
2022-08-02T13:39:37.079Z,98.10
2022-08-02T13:42:03.987Z,97.60
2022-08-02T13:44:32.716Z,97.40
2022-08-02T13:46:59.451Z,97.80
2022-08-02T13:49:51.541Z,98.10
2022-08-02T13:52:13.358Z,99.30
2022-08-02T13:54:40.461Z,97.40
2022-08-02T13:57:07.247Z,95.00
2022-08-02T13:59:56.968Z,97.40
2022-08-02T14:02:20.853Z,97.40
2022-08-02T14:04:47.617Z,98.80
2022-08-02T14:07:15.938Z,97.90
2022-08-02T14:09:43.622Z,96.80
2022-08-02T14:12:11.214Z,96.90
2022-08-02T14:14:38.700Z,97.90
2022-08-02T14:17:05.774Z,96.10
2022-08-02T14:19:32.705Z,96.40
2022-08-02T14:22:11.449Z,96.90
2022-08-02T14:24:39.800Z,97.50
2022-08-02T14:27:06.766Z,96.80
2022-08-02T14:29:33.681Z,95.70
2022-08-02T14:32:00.715Z,96.40
2022-08-02T14:34:27.677Z,96.40
2022-08-02T14:36:55.874Z,95.70
2022-08-02T14:39:23.215Z,95.80
2022-08-02T14:41:58.851Z,96.20
2022-08-02T14:44:30.446Z,94.80
2022-08-02T14:46:57.411Z,95.00
2022-08-02T14:49:25.135Z,95.60
2022-08-02T14:51:54.210Z,94.10
2022-08-02T14:54:28.129Z,94.90
2022-08-02T14:56:58.301Z,95.50
2022-08-02T14:59:25.295Z,96.10
2022-08-02T15:01:52.132Z,95.20
2022-08-02T15:04:18.954Z,94.90
2022-08-02T15:06:45.701Z,94.10
2022-08-02T15:09:13.552Z,95.20
2022-08-02T15:11:47.627Z,96.50
2022-08-02T15:14:21.880Z,96.40
2022-08-02T15:16:57.147Z,96.20
2022-08-02T15:19:28.661Z,96.60
2022-08-02T15:22:15.863Z,97.40
2022-08-02T15:24:44.794Z,95.90
2022-08-02T15:27:13.449Z,95.60
2022-08-02T15:29:40.595Z,95.70
2022-08-02T15:32:07.498Z,95.70
2022-08-02T15:34:34.247Z,95.50
2022-08-02T15:37:01.025Z,94.90
2022-08-02T15:39:27.754Z,96.30
2022-08-02T15:41:54.498Z,96.40
2022-08-02T15:44:21.176Z,97.70
2022-08-02T15:46:47.863Z,95.50
2022-08-02T15:49:14.663Z,96.20
2022-08-02T15:51:41.307Z,95.50
2022-08-02T15:54:08.028Z,96.30
2022-08-02T15:56:34.725Z,95.20
2022-08-02T15:59:01.578Z,96.80
2022-08-02T16:01:32.095Z,94.80
2022-08-02T16:04:06.843Z,95.80
2022-08-02T16:06:34.906Z,94.90
2022-08-02T16:09:02.194Z,94.60
2022-08-02T16:11:29.077Z,94.60
2022-08-02T16:13:56.500Z,94.90
2022-08-02T16:16:28.450Z,94.90
2022-08-02T16:18:55.978Z,93.90
2022-08-02T16:21:24.486Z,93.50
2022-08-02T16:23:59.262Z,92.40
2022-08-02T16:26:34.044Z,91.10
2022-08-02T16:29:02.259Z,89.00
2022-08-02T16:31:29.572Z,86.60
2022-08-02T16:33:57.191Z,86.20
2022-08-02T16:36:25.402Z,83.90
2022-08-02T16:38:54.316Z,83.80
2022-08-02T16:41:21.720Z,82.40
2022-08-02T16:43:48.448Z,80.30
2022-08-02T16:46:15.185Z,78.30
2022-08-02T16:48:50.832Z,76.60
2022-08-02T16:51:19.191Z,75.30
2022-08-02T16:53:59.823Z,75.10
2022-08-02T16:56:30.352Z,73.20
2022-08-02T16:59:00.150Z,72.70
2022-08-02T17:02:10.936Z,72.80
2022-08-02T17:04:15.535Z,72.80
2022-08-02T17:06:47.571Z,73.70
2022-08-02T17:10:02.988Z,75.80
2022-08-02T17:12:15.778Z,78.90
2022-08-02T17:14:55.066Z,86.50
2022-08-02T17:17:33.619Z,87.10
2022-08-02T17:20:01.675Z,89.30
2022-08-02T17:22:28.771Z,90.00
2022-08-02T17:24:55.802Z,89.80
2022-08-02T17:27:22.751Z,87.40
2022-08-02T17:29:49.667Z,88.70
2022-08-02T17:32:18.348Z,86.20
2022-08-02T17:34:49.052Z,87.00
2022-08-02T17:37:28.389Z,89.70
2022-08-02T17:39:56.879Z,91.60
2022-08-02T17:42:24.918Z,93.10
2022-08-02T17:45:07.088Z,94.50
2022-08-02T17:47:43.297Z,95.50
2022-08-02T17:50:30.042Z,96.60
2022-08-02T17:52:56.971Z,97.50
2022-08-02T17:55:23.798Z,98.10
2022-08-02T17:57:57.149Z,99.20
2022-08-02T18:00:35.891Z,99.70
2022-08-02T18:03:05.443Z,99.90
2022-08-02T18:05:41.627Z,99.90
2022-08-02T18:08:23.277Z,99.90
2022-08-02T18:10:52.483Z,99.90
2022-08-02T18:13:19.412Z,99.90
2022-08-02T18:15:46.250Z,99.90
2022-08-02T18:18:14.502Z,99.90
2022-08-02T18:20:41.920Z,99.90
2022-08-02T18:23:13.449Z,99.90
2022-08-02T18:25:45.871Z,99.90
2022-08-02T18:28:15.099Z,99.90
2022-08-02T18:30:42.380Z,99.90
2022-08-02T18:33:59.086Z,99.90
2022-08-02T18:35:56.069Z,99.90
2022-08-02T18:38:24.854Z,99.90
2022-08-02T18:40:53.678Z,99.90
2022-08-02T18:43:25.370Z,99.90
2022-08-02T18:46:07.276Z,99.90
2022-08-02T18:48:46.964Z,99.90
2022-08-02T18:51:16.260Z,99.90
2022-08-02T18:53:46.728Z,99.90
2022-08-02T18:56:19.629Z,99.90
2022-08-02T18:58:50.823Z,99.90
2022-08-02T19:01:31.442Z,99.90
2022-08-02T19:04:01.481Z,99.90
2022-08-02T19:06:29.106Z,99.90
2022-08-02T19:09:05.975Z,99.90
2022-08-02T19:11:47.510Z,99.90
2022-08-02T19:17:53.089Z,99.90
2022-08-02T19:19:51.187Z,99.90
2022-08-02T19:22:26.808Z,99.90
2022-08-02T19:24:59.968Z,99.90
2022-08-02T19:27:32.727Z,99.90
2022-08-02T19:30:07.489Z,99.90
2022-08-02T19:32:39.820Z,99.90
2022-08-02T19:35:19.800Z,99.90
2022-08-02T19:38:06.171Z,99.90
2022-08-02T19:40:33.182Z,99.90
2022-08-02T19:44:23.976Z,99.90
2022-08-02T19:45:50.979Z,99.90
2022-08-02T19:48:23.606Z,99.90
2022-08-02T19:50:56.317Z,99.90
2022-08-02T19:53:28.725Z,99.90
2022-08-02T19:56:00.510Z,99.90
2022-08-02T19:58:30.353Z,99.90
2022-08-02T20:00:58.230Z,99.90
2022-08-02T20:03:50.905Z,99.90
2022-08-02T20:06:13.541Z,99.90
2022-08-02T20:08:40.784Z,99.90
2022-08-02T20:11:20.073Z,99.90
2022-08-02T20:13:50.198Z,99.90
2022-08-02T20:16:28.075Z,99.90
2022-08-02T20:18:59.687Z,99.90
2022-08-02T20:21:35.595Z,99.90
2022-08-02T20:24:07.631Z,99.90
2022-08-02T20:26:35.236Z,99.90
2022-08-02T20:29:05.923Z,99.90
2022-08-02T20:31:35.578Z,99.90
2022-08-02T20:34:02.573Z,99.90
2022-08-02T20:36:29.335Z,99.90
2022-08-02T20:38:56.305Z,99.90
2022-08-02T20:41:23.712Z,99.90
2022-08-02T20:44:04.253Z,99.90
2022-08-02T20:46:30.929Z,99.90
2022-08-02T20:49:01.318Z,99.90
2022-08-02T20:51:33.806Z,99.90
2022-08-02T20:54:00.693Z,99.90
2022-08-02T20:56:29.393Z,99.90
2022-08-02T20:59:03.817Z,99.90
2022-08-02T21:01:37.080Z,99.90
2022-08-02T21:04:04.190Z,99.90
2022-08-02T21:06:31.264Z,99.90
2022-08-02T21:08:58.631Z,99.90
2022-08-02T21:11:33.545Z,99.90
2022-08-02T21:14:07.807Z,99.90
2022-08-02T21:16:36.473Z,99.90
2022-08-02T21:19:09.576Z,99.90
2022-08-02T21:21:37.262Z,99.90
2022-08-02T21:24:04.542Z,99.90
2022-08-02T21:26:32.602Z,99.90
2022-08-02T21:29:04.395Z,99.90
2022-08-02T21:31:35.760Z,99.90
2022-08-02T21:34:21.761Z,99.90
2022-08-02T21:36:49.759Z,99.90
2022-08-02T21:39:17.544Z,99.90
2022-08-02T21:41:46.504Z,99.90
2022-08-02T21:44:18.386Z,99.90
2022-08-02T21:46:49.239Z,99.90
2022-08-02T21:49:17.729Z,99.90
2022-08-02T21:51:49.476Z,99.90
2022-08-02T21:54:20.167Z,99.90
2022-08-02T21:56:49.318Z,99.90
2022-08-02T21:59:25.745Z,99.90
2022-08-02T22:01:57.398Z,99.90
2022-08-02T22:04:25.773Z,99.90
2022-08-02T22:06:53.165Z,99.90
2022-08-02T22:09:44.351Z,99.90
2022-08-02T22:12:10.340Z,99.90
2022-08-02T22:14:43.581Z,99.90
2022-08-02T22:17:16.593Z,99.90
2022-08-02T22:19:53.821Z,99.90
2022-08-02T22:22:28.318Z,99.90
2022-08-02T22:24:57.038Z,99.90
2022-08-02T22:28:34.941Z,99.90
2022-08-02T22:30:11.586Z,99.90
2022-08-02T22:32:56.999Z,99.90
2022-08-02T22:35:23.793Z,99.90
2022-08-02T22:38:15.001Z,99.90
2022-08-02T22:40:37.602Z,99.90
2022-08-02T22:43:06.061Z,99.90
2022-08-02T22:45:37.471Z,99.90
2022-08-02T22:48:04.721Z,99.90
2022-08-02T22:50:31.818Z,99.90
2022-08-02T22:52:58.925Z,99.90
2022-08-02T22:55:32.287Z,99.90
2022-08-02T22:57:59.947Z,99.90
2022-08-02T22:58:47.334Z,99.90
2022-08-02T23:00:27.931Z,99.90
2022-08-02T23:02:54.614Z,99.90
2022-08-02T23:05:21.818Z,99.90
2022-08-02T23:07:48.500Z,99.90
2022-08-02T23:10:15.315Z,99.90
2022-08-02T23:12:42.190Z,99.90
2022-08-02T23:15:09.696Z,99.90
2022-08-02T23:17:54.889Z,99.90
2022-08-02T23:20:21.875Z,99.90
2022-08-02T23:22:48.597Z,99.90
2022-08-02T23:25:15.329Z,99.90
2022-08-02T23:27:50.496Z,99.90
2022-08-02T23:30:18.410Z,99.90
2022-08-02T23:32:46.750Z,99.90
2022-08-02T23:35:16.756Z,99.90
2022-08-02T23:38:00.109Z,99.90
2022-08-02T23:40:40.407Z,99.90
2022-08-02T23:43:13.611Z,99.90
2022-08-02T23:45:43.225Z,99.90
2022-08-02T23:48:09.898Z,99.90
2022-08-02T23:50:36.702Z,99.90
2022-08-02T23:53:03.835Z,99.90
2022-08-02T23:55:30.523Z,99.90
2022-08-02T23:57:57.194Z,99.90
